Time;durP1;ratioP1;P1;durP2;ratioP2;P2;SDS_P1;SDS_P2;PMS_P1;PMS_P2;Temp;Humidity;BMP_temperature;BMP_pressure;BME280_temperature;BME280_humidity;BME280_pressure;Samples;Min_cycle;Max_cycle;Signal;HPM_P1;HPM_P2
2022/10/22 00:01:19;;;;;;;8.80;5.00;;;;;;;;;;4992684;28;20081;-78
2022/10/22 00:03:45;;;;;;;10.32;5.28;;;;;;;;;;4974878;28;20088;-78
2022/10/22 00:06:11;;;;;;;9.23;5.43;;;;;;;;;;4992696;28;20140;-78
2022/10/22 00:08:37;;;;;;;8.07;4.85;;;;;;;;;;4992192;28;20152;-78
2022/10/22 00:11:08;;;;;;;10.30;5.15;;;;;;;;;;4997621;28;20072;-78
2022/10/22 00:13:34;;;;;;;8.27;5.43;;;;;;;;;;5011772;28;20042;-78
2022/10/22 00:16:00;;;;;;;8.00;4.95;;;;;;;;;;5010459;28;20037;-78
2022/10/22 00:18:26;;;;;;;9.57;5.85;;;;;;;;;;5012148;28;20157;-78
2022/10/22 00:20:52;;;;;;;14.05;6.07;;;;;;;;;;5011866;28;20033;-78
2022/10/22 00:23:18;;;;;;;8.60;5.18;;;;;;;;;;5011552;28;20037;-78
2022/10/22 00:25:44;;;;;;;10.60;5.72;;;;;;;;;;5011562;28;20113;-78
2022/10/22 00:28:10;;;;;;;11.48;5.47;;;;;;;;;;5011799;28;20036;-78
2022/10/22 00:30:36;;;;;;;12.52;6.85;;;;;;;;;;5010181;28;20105;-78
2022/10/22 00:33:02;;;;;;;12.98;5.97;;;;;;;;;;5011679;28;20065;-78
2022/10/22 00:35:29;;;;;;;12.35;5.93;;;;;;;;;;5011543;28;20440;-78
2022/10/22 00:37:55;;;;;;;12.70;5.90;;;;;;;;;;5011536;28;20111;-78
2022/10/22 00:40:21;;;;;;;16.67;7.22;;;;;;;;;;5011576;28;20096;-78
2022/10/22 00:42:47;;;;;;;10.77;6.07;;;;;;;;;;5011271;28;20057;-78
2022/10/22 00:45:24;;;;;;;14.18;6.53;;;;;;;;;;5011199;28;20042;-78
2022/10/22 00:47:50;;;;;;;11.45;6.65;;;;;;;;;;4990421;28;20326;-78
2022/10/22 00:50:40;;;;;;;15.75;6.78;;;;;;;;;;4991885;28;20385;-78
2022/10/22 00:53:08;;;;;;;13.05;6.78;;;;;;;;;;4976349;28;20037;-78
2022/10/22 00:55:34;;;;;;;11.73;6.38;;;;;;;;;;5011384;28;20034;-78
2022/10/22 00:58:01;;;;;;;12.10;6.07;;;;;;;;;;5011359;28;20018;-78
2022/10/22 01:00:27;;;;;;;8.75;6.22;;;;;;;;;;5011498;28;20042;-78
2022/10/22 01:02:53;;;;;;;12.02;6.07;;;;;;;;;;5011242;28;20496;-78
2022/10/22 01:05:20;;;;;;;8.90;5.60;;;;;;;;;;5011569;28;20029;-78
2022/10/22 01:07:47;;;;;;;15.98;6.25;;;;;;;;;;5012151;28;20040;-78
2022/10/22 01:10:22;;;;;;;10.35;6.00;;;;;;;;;;5012265;28;20421;-78
2022/10/22 01:12:48;;;;;;;10.65;5.75;;;;;;;;;;4993906;28;20322;-77
2022/10/22 01:15:33;;;;;;;12.90;5.88;;;;;;;;;;5011303;28;20022;-77
2022/10/22 01:17:59;;;;;;;12.63;5.28;;;;;;;;;;5010799;28;20018;-78
2022/10/22 01:20:31;;;;;;;13.48;5.22;;;;;;;;;;5011554;28;20045;-78
2022/10/22 01:23:06;;;;;;;9.80;6.30;;;;;;;;;;5013038;28;20022;-77
2022/10/22 01:25:45;;;;;;;17.75;5.72;;;;;;;;;;5014902;28;20022;-78
2022/10/22 01:28:11;;;;;;;12.93;5.00;;;;;;;;;;4997049;28;20029;-77
2022/10/22 01:30:38;;;;;;;10.55;5.50;;;;;;;;;;4997213;28;20026;-78
2022/10/22 01:33:06;;;;;;;10.57;5.93;;;;;;;;;;5014553;28;20034;-78
2022/10/22 01:35:34;;;;;;;8.27;5.00;;;;;;;;;;5014891;28;20029;-78
2022/10/22 01:38:03;;;;;;;12.93;5.13;;;;;;;;;;5014485;28;20033;-77
2022/10/22 01:40:30;;;;;;;11.93;5.93;;;;;;;;;;5014390;28;20345;-78
2022/10/22 01:43:00;;;;;;;13.25;5.45;;;;;;;;;;4997829;28;20030;-78
2022/10/22 01:45:28;;;;;;;11.65;5.60;;;;;;;;;;4994858;28;20444;-78
2022/10/22 01:47:54;;;;;;;13.73;5.95;;;;;;;;;;4998074;28;20026;-77
2022/10/22 01:50:26;;;;;;;14.40;5.32;;;;;;;;;;5011655;28;20014;-77
2022/10/22 01:53:09;;;;;;;10.43;5.65;;;;;;;;;;5011087;28;20084;-77
2022/10/22 01:55:38;;;;;;;9.15;5.47;;;;;;;;;;5010633;28;20026;-77
2022/10/22 01:58:16;;;;;;;10.10;5.63;;;;;;;;;;4992328;28;20485;-77
2022/10/22 02:00:45;;;;;;;14.30;5.80;;;;;;;;;;4994687;28;20050;-77
2022/10/22 02:03:18;;;;;;;11.43;5.63;;;;;;;;;;4993036;28;20114;-77
2022/10/22 02:05:47;;;;;;;10.88;5.10;;;;;;;;;;4994783;28;20034;-77
2022/10/22 02:08:22;;;;;;;9.10;5.70;;;;;;;;;;4994483;28;20026;-77
2022/10/22 02:10:49;;;;;;;9.35;5.30;;;;;;;;;;4994382;28;20527;-77
2022/10/22 02:13:20;;;;;;;11.18;5.53;;;;;;;;;;4993407;28;20034;-77
2022/10/22 02:15:48;;;;;;;9.90;5.65;;;;;;;;;;4994154;28;20117;-76
2022/10/22 02:18:17;;;;;;;18.17;6.43;;;;;;;;;;4994351;28;20401;-77
2022/10/22 02:20:43;;;;;;;11.90;6.03;;;;;;;;;;4993067;28;20503;-77
2022/10/22 02:23:10;;;;;;;14.07;6.53;;;;;;;;;;4994080;28;20483;-77
2022/10/22 02:25:37;;;;;;;11.77;6.10;;;;;;;;;;4994360;28;20053;-77
2022/10/22 02:28:09;;;;;;;13.38;6.13;;;;;;;;;;4993477;28;20541;-77
2022/10/22 02:30:37;;;;;;;19.70;7.55;;;;;;;;;;4993801;28;20136;-77
2022/10/22 02:33:10;;;;;;;18.10;7.05;;;;;;;;;;4993105;28;20143;-77
2022/10/22 02:35:37;;;;;;;21.45;7.15;;;;;;;;;;4993263;28;20034;-77
2022/10/22 02:38:03;;;;;;;14.75;6.97;;;;;;;;;;4993881;28;20089;-77
2022/10/22 02:40:30;;;;;;;17.13;8.77;;;;;;;;;;4993799;28;20110;-77
2022/10/22 02:42:56;;;;;;;18.80;8.52;;;;;;;;;;5010663;28;20105;-77
2022/10/22 02:45:23;;;;;;;16.02;8.75;;;;;;;;;;5013220;28;20034;-77
2022/10/22 02:47:49;;;;;;;18.63;9.10;;;;;;;;;;4992393;28;20046;-77
2022/10/22 02:50:15;;;;;;;18.83;9.25;;;;;;;;;;4993720;28;20018;-77
2022/10/22 02:52:41;;;;;;;19.77;9.63;;;;;;;;;;4996516;28;20034;-77
2022/10/22 02:55:07;;;;;;;16.92;9.10;;;;;;;;;;5000006;28;20031;-77
2022/10/22 02:57:33;;;;;;;19.92;9.30;;;;;;;;;;4975885;28;20077;-77
2022/10/22 02:59:59;;;;;;;18.48;8.00;;;;;;;;;;4997243;28;20050;-77
2022/10/22 03:02:25;;;;;;;20.02;8.10;;;;;;;;;;4992056;28;20038;-77
2022/10/22 03:04:51;;;;;;;14.48;8.00;;;;;;;;;;4993455;28;20038;-77
2022/10/22 03:07:17;;;;;;;17.92;7.80;;;;;;;;;;4993311;28;20026;-77
2022/10/22 03:09:43;;;;;;;16.40;8.27;;;;;;;;;;4975933;28;20035;-77
2022/10/22 03:12:09;;;;;;;14.85;8.85;;;;;;;;;;5012741;28;20465;-77
2022/10/22 03:14:36;;;;;;;16.58;7.35;;;;;;;;;;4995525;28;20437;-77
2022/10/22 03:17:02;;;;;;;20.65;7.47;;;;;;;;;;5012713;28;20456;-77
2022/10/22 03:19:28;;;;;;;17.40;7.97;;;;;;;;;;5013097;28;20061;-77
2022/10/22 03:22:00;;;;;;;17.48;8.27;;;;;;;;;;5013071;28;20041;-77
2022/10/22 03:24:37;;;;;;;18.33;9.20;;;;;;;;;;5012680;28;20412;-77
2022/10/22 03:27:03;;;;;;;16.98;7.90;;;;;;;;;;5013101;28;20037;-77
2022/10/22 03:29:31;;;;;;;20.38;8.15;;;;;;;;;;4995084;28;20029;-77
2022/10/22 03:31:57;;;;;;;13.80;8.32;;;;;;;;;;5013230;28;20085;-77
2022/10/22 03:34:23;;;;;;;13.13;7.00;;;;;;;;;;5012769;28;20025;-77
2022/10/22 03:36:49;;;;;;;18.73;8.38;;;;;;;;;;5012840;28;20030;-77
2022/10/22 03:39:16;;;;;;;18.52;8.32;;;;;;;;;;5012701;28;20080;-77
2022/10/22 03:41:43;;;;;;;20.67;8.90;;;;;;;;;;5012786;28;20096;-77
2022/10/22 03:44:10;;;;;;;13.02;7.88;;;;;;;;;;5012523;28;20436;-77
2022/10/22 03:46:36;;;;;;;21.40;8.63;;;;;;;;;;4992091;28;20031;-77
2022/10/22 03:49:02;;;;;;;18.17;8.38;;;;;;;;;;4992934;28;20069;-77
2022/10/22 03:51:28;;;;;;;25.08;9.05;;;;;;;;;;5010673;28;20090;-77
2022/10/22 03:53:54;;;;;;;20.55;8.82;;;;;;;;;;4999220;28;20033;-77
2022/10/22 03:56:20;;;;;;;18.58;8.32;;;;;;;;;;4992959;28;20632;-77
2022/10/22 03:58:46;;;;;;;22.58;9.48;;;;;;;;;;4998942;28;20042;-77
2022/10/22 04:01:13;;;;;;;21.13;8.90;;;;;;;;;;5011985;28;20030;-77
2022/10/22 04:03:39;;;;;;;24.25;9.10;;;;;;;;;;5012090;28;20038;-77
2022/10/22 04:06:07;;;;;;;22.38;9.70;;;;;;;;;;5012247;28;20034;-77
2022/10/22 04:08:33;;;;;;;18.88;9.18;;;;;;;;;;4994553;28;20333;-77
2022/10/22 04:10:59;;;;;;;20.42;9.02;;;;;;;;;;5001545;28;20030;-77
2022/10/22 04:13:25;;;;;;;17.83;9.43;;;;;;;;;;4992304;28;20038;-77
2022/10/22 04:15:51;;;;;;;19.13;8.73;;;;;;;;;;4992391;28;20137;-77
2022/10/22 04:18:18;;;;;;;16.17;9.02;;;;;;;;;;4992580;28;20034;-77
2022/10/22 04:20:44;;;;;;;23.80;9.52;;;;;;;;;;4992163;28;20026;-77
2022/10/22 04:23:10;;;;;;;21.67;9.43;;;;;;;;;;4991022;28;20126;-77
2022/10/22 04:25:36;;;;;;;17.10;9.48;;;;;;;;;;4991976;28;20038;-77
2022/10/22 04:28:02;;;;;;;25.35;9.93;;;;;;;;;;4992387;28;20130;-77
2022/10/22 04:30:29;;;;;;;17.63;9.40;;;;;;;;;;4992229;28;20062;-77
2022/10/22 04:32:55;;;;;;;17.48;9.10;;;;;;;;;;4992112;28;20053;-77
2022/10/22 04:35:21;;;;;;;22.73;10.07;;;;;;;;;;4992050;28;20085;-77
2022/10/22 04:37:47;;;;;;;22.95;9.18;;;;;;;;;;4990560;28;20124;-77
2022/10/22 04:40:13;;;;;;;19.33;9.27;;;;;;;;;;4992569;28;20678;-77
2022/10/22 04:42:39;;;;;;;20.13;9.23;;;;;;;;;;4992860;28;20089;-77
2022/10/22 04:45:05;;;;;;;18.88;9.02;;;;;;;;;;4975315;28;20064;-77
2022/10/22 04:47:31;;;;;;;18.95;9.23;;;;;;;;;;4992143;28;20077;-77
2022/10/22 04:49:57;;;;;;;19.13;8.30;;;;;;;;;;4976761;28;20583;-78
2022/10/22 04:52:23;;;;;;;20.00;9.15;;;;;;;;;;5005603;28;20449;-77
2022/10/22 04:54:49;;;;;;;15.98;8.77;;;;;;;;;;5000520;28;20117;-77
2022/10/22 04:57:15;;;;;;;18.67;8.15;;;;;;;;;;4991689;28;20574;-78
2022/10/22 04:59:41;;;;;;;19.05;8.75;;;;;;;;;;5005781;28;20110;-77
2022/10/22 05:02:07;;;;;;;15.77;8.55;;;;;;;;;;5010425;28;20811;-77
2022/10/22 05:04:33;;;;;;;15.95;9.00;;;;;;;;;;5011677;28;20128;-77
2022/10/22 05:06:59;;;;;;;22.67;7.95;;;;;;;;;;5011634;28;20026;-77
2022/10/22 05:09:25;;;;;;;20.80;8.45;;;;;;;;;;5011396;28;20033;-77
2022/10/22 05:11:52;;;;;;;25.63;8.95;;;;;;;;;;4993846;28;20051;-77
2022/10/22 05:14:23;;;;;;;25.45;8.25;;;;;;;;;;4991528;28;20492;-77
2022/10/22 05:16:49;;;;;;;26.15;8.95;;;;;;;;;;4991805;28;20416;-77
2022/10/22 05:19:23;;;;;;;16.73;7.80;;;;;;;;;;4991948;28;20034;-77
2022/10/22 05:21:49;;;;;;;17.05;7.55;;;;;;;;;;4991639;28;20080;-77
2022/10/22 05:24:15;;;;;;;20.35;8.73;;;;;;;;;;4991948;28;20385;-77
2022/10/22 05:26:41;;;;;;;15.57;7.47;;;;;;;;;;4991577;28;20023;-77
2022/10/22 05:29:08;;;;;;;22.80;7.75;;;;;;;;;;4992090;28;20030;-77
2022/10/22 05:31:34;;;;;;;18.73;7.43;;;;;;;;;;4991983;28;20085;-77
2022/10/22 05:34:00;;;;;;;20.85;8.57;;;;;;;;;;4974506;28;20030;-77
2022/10/22 05:36:26;;;;;;;16.55;7.18;;;;;;;;;;4991510;28;20042;-77
2022/10/22 05:38:52;;;;;;;23.45;8.10;;;;;;;;;;4991523;28;20058;-77
2022/10/22 05:41:20;;;;;;;21.08;8.02;;;;;;;;;;4995594;28;20022;-77
2022/10/22 05:43:47;;;;;;;19.63;8.20;;;;;;;;;;5011017;28;20104;-77
2022/10/22 05:46:14;;;;;;;21.88;7.85;;;;;;;;;;5011163;28;20029;-77
2022/10/22 05:48:41;;;;;;;17.42;7.65;;;;;;;;;;4991870;28;20023;-77
2022/10/22 05:51:11;;;;;;;18.77;7.75;;;;;;;;;;4999077;28;20030;-77
2022/10/22 05:53:38;;;;;;;19.77;8.10;;;;;;;;;;4996099;28;20034;-77
2022/10/22 05:56:05;;;;;;;20.88;7.70;;;;;;;;;;4991707;28;20034;-77
2022/10/22 05:58:32;;;;;;;23.40;8.55;;;;;;;;;;4990146;28;20022;-77
2022/10/22 06:01:03;;;;;;;18.38;8.13;;;;;;;;;;4991461;28;20113;-77
2022/10/22 06:03:30;;;;;;;15.88;7.80;;;;;;;;;;4991610;28;20046;-77
2022/10/22 06:05:56;;;;;;;19.70;7.32;;;;;;;;;;4974113;28;20117;-77
2022/10/22 06:08:22;;;;;;;21.40;8.13;;;;;;;;;;4991774;28;20457;-77
2022/10/22 06:10:49;;;;;;;25.42;8.63;;;;;;;;;;5000366;28;20480;-77
2022/10/22 06:13:15;;;;;;;24.35;8.50;;;;;;;;;;5014251;28;20034;-77
2022/10/22 06:15:41;;;;;;;25.58;8.10;;;;;;;;;;5014455;28;20021;-77
2022/10/22 06:18:07;;;;;;;19.75;7.80;;;;;;;;;;5014227;28;20488;-78
2022/10/22 06:20:34;;;;;;;18.15;8.02;;;;;;;;;;5014736;28;20594;-79
2022/10/22 06:23:00;;;;;;;20.15;10.02;;;;;;;;;;5014368;28;20372;-79
2022/10/22 06:25:26;;;;;;;17.70;7.45;;;;;;;;;;5014344;28;20021;-78
2022/10/22 06:27:52;;;;;;;20.13;7.50;;;;;;;;;;4996106;28;20140;-78
2022/10/22 06:30:18;;;;;;;17.95;7.40;;;;;;;;;;5008487;28;20428;-78
2022/10/22 06:32:44;;;;;;;21.50;7.63;;;;;;;;;;5005090;28;21484;-78
2022/10/22 06:35:10;;;;;;;13.60;7.35;;;;;;;;;;5003546;28;20030;-78
2022/10/22 06:37:36;;;;;;;22.60;8.30;;;;;;;;;;5008645;28;20117;-78
2022/10/22 06:40:02;;;;;;;18.83;7.15;;;;;;;;;;5004574;28;20026;-78
2022/10/22 06:42:28;;;;;;;28.55;8.27;;;;;;;;;;5005377;28;20037;-78
2022/10/22 06:44:54;;;;;;;20.42;7.90;;;;;;;;;;5005671;28;20042;-78
2022/10/22 06:47:20;;;;;;;20.05;7.60;;;;;;;;;;4992908;28;20026;-78
2022/10/22 06:49:48;;;;;;;20.73;7.20;;;;;;;;;;5009982;28;20396;-78
2022/10/22 06:52:14;;;;;;;25.92;6.80;;;;;;;;;;5003184;28;20018;-78
2022/10/22 06:54:40;;;;;;;17.63;7.32;;;;;;;;;;5006170;28;20026;-78
2022/10/22 06:57:06;;;;;;;22.92;6.70;;;;;;;;;;4995096;28;20058;-78
2022/10/22 06:59:33;;;;;;;17.55;6.85;;;;;;;;;;5003683;28;20026;-78
2022/10/22 07:01:59;;;;;;;24.52;6.55;;;;;;;;;;5005201;28;20145;-78
2022/10/22 07:04:25;;;;;;;15.32;6.55;;;;;;;;;;5003379;28;20077;-78
2022/10/22 07:06:51;;;;;;;22.00;7.13;;;;;;;;;;5003333;28;20022;-78
2022/10/22 07:09:17;;;;;;;19.25;6.68;;;;;;;;;;5001368;28;20018;-78
2022/10/22 07:11:44;;;;;;;16.70;6.50;;;;;;;;;;5003126;28;20072;-78
2022/10/22 07:14:10;;;;;;;16.52;6.28;;;;;;;;;;4999634;28;20022;-78
2022/10/22 07:16:36;;;;;;;21.52;6.43;;;;;;;;;;5006490;28;20030;-78
2022/10/22 07:19:03;;;;;;;15.50;5.32;;;;;;;;;;4999339;28;20030;-78
2022/10/22 07:21:29;;;;;;;23.92;6.00;;;;;;;;;;5000238;28;20034;-78
2022/10/22 07:23:55;;;;;;;18.20;5.57;;;;;;;;;;5001125;28;20029;-78
2022/10/22 07:26:23;;;;;;;21.42;6.00;;;;;;;;;;5004995;28;20026;-78
2022/10/22 07:28:49;;;;;;;15.00;5.10;;;;;;;;;;5003917;28;20040;-78
2022/10/22 07:31:17;;;;;;;16.48;5.28;;;;;;;;;;4992159;28;20104;-78
2022/10/22 07:33:43;;;;;;;14.30;4.95;;;;;;;;;;5005208;28;20014;-78
2022/10/22 07:36:10;;;;;;;18.17;5.00;;;;;;;;;;5007014;28;20029;-78
2022/10/22 07:38:37;;;;;;;24.33;6.63;;;;;;;;;;5009751;28;20253;-78
2022/10/22 07:41:03;;;;;;;13.52;4.78;;;;;;;;;;5004374;28;20037;-78
2022/10/22 07:43:29;;;;;;;18.63;5.35;;;;;;;;;;5007378;28;20087;-78
2022/10/22 07:45:55;;;;;;;15.65;4.97;;;;;;;;;;4987644;28;20050;-78
2022/10/22 07:48:22;;;;;;;14.48;5.30;;;;;;;;;;4982163;28;20030;-78
2022/10/22 07:50:51;;;;;;;24.63;5.93;;;;;;;;;;5003748;28;20076;-78
2022/10/22 07:53:17;;;;;;;14.50;5.47;;;;;;;;;;4998616;28;20026;-79
2022/10/22 07:55:43;;;;;;;18.73;4.97;;;;;;;;;;5007134;28;20038;-78
2022/10/22 07:58:09;;;;;;;14.75;4.78;;;;;;;;;;5009991;28;20113;-78
2022/10/22 08:00:36;;;;;;;14.80;4.70;;;;;;;;;;4993301;28;20030;-78
2022/10/22 08:03:02;;;;;;;16.08;4.95;;;;;;;;;;4993053;28;20081;-79
2022/10/22 08:05:28;;;;;;;16.20;5.30;;;;;;;;;;5001219;28;20507;-79
2022/10/22 08:07:54;;;;;;;16.38;4.72;;;;;;;;;;5003091;28;20042;-79
2022/10/22 08:10:20;;;;;;;10.77;4.80;;;;;;;;;;5003230;28;20014;-79
2022/10/22 08:12:46;;;;;;;16.60;5.30;;;;;;;;;;5007209;28;20097;-78
2022/10/22 08:15:12;;;;;;;16.73;4.70;;;;;;;;;;5003361;28;20038;-79
2022/10/22 08:17:38;;;;;;;13.40;4.20;;;;;;;;;;5000906;28;20377;-79
2022/10/22 08:20:05;;;;;;;12.63;3.83;;;;;;;;;;4997827;28;20026;-78
2022/10/22 08:22:31;;;;;;;16.92;4.65;;;;;;;;;;5004420;28;20208;-79
2022/10/22 08:24:59;;;;;;;15.35;3.22;;;;;;;;;;4994663;28;20034;-77
2022/10/22 08:27:25;;;;;;;18.55;3.80;;;;;;;;;;4994673;28;20035;-79
2022/10/22 08:29:51;;;;;;;13.88;3.45;;;;;;;;;;4977193;28;20041;-78
2022/10/22 08:32:17;;;;;;;14.38;2.90;;;;;;;;;;4992475;28;20048;-79
2022/10/22 08:34:43;;;;;;;14.25;3.28;;;;;;;;;;5001197;28;20364;-79
2022/10/22 08:37:13;;;;;;;14.70;3.08;;;;;;;;;;5005037;28;20029;-79
2022/10/22 08:39:39;;;;;;;11.40;3.45;;;;;;;;;;5004415;28;20025;-79
2022/10/22 08:42:13;;;;;;;14.00;3.15;;;;;;;;;;4991319;28;20030;-78
2022/10/22 08:44:40;;;;;;;15.18;3.55;;;;;;;;;;5003188;28;20034;-79
2022/10/22 08:47:11;;;;;;;8.90;2.88;;;;;;;;;;5012514;28;20022;-78
2022/10/22 08:49:40;;;;;;;9.77;2.80;;;;;;;;;;5012407;28;20604;-80
2022/10/22 08:52:09;;;;;;;15.00;2.67;;;;;;;;;;4993908;28;20065;-80
2022/10/22 08:54:54;;;;;;;9.35;2.53;;;;;;;;;;5013623;28;20030;-82
2022/10/22 08:57:20;;;;;;;9.45;2.63;;;;;;;;;;5012873;28;20357;-81
2022/10/22 08:59:49;;;;;;;11.40;2.72;;;;;;;;;;4994995;28;20032;-80
2022/10/22 09:02:45;;;;;;;8.52;2.50;;;;;;;;;;5012698;28;20030;-79
2022/10/22 09:05:22;;;;;;;14.95;2.88;;;;;;;;;;4959569;28;20058;-79
2022/10/22 09:07:49;;;;;;;10.98;2.58;;;;;;;;;;5012451;28;20503;-78
2022/10/22 09:10:16;;;;;;;12.60;2.67;;;;;;;;;;4989207;28;20480;-81
2022/10/22 09:12:43;;;;;;;8.90;2.80;;;;;;;;;;4992984;28;20430;-78
2022/10/22 09:15:13;;;;;;;11.55;2.40;;;;;;;;;;5011726;28;20109;-78
2022/10/22 09:17:45;;;;;;;14.23;3.00;;;;;;;;;;5012289;28;20029;-78
2022/10/22 09:20:27;;;;;;;15.30;3.17;;;;;;;;;;5012042;28;20029;-77
2022/10/22 09:23:16;;;;;;;11.60;2.95;;;;;;;;;;5000194;28;20027;-78
2022/10/22 09:25:43;;;;;;;11.82;2.80;;;;;;;;;;4999035;28;20045;-76
2022/10/22 09:28:10;;;;;;;10.27;2.70;;;;;;;;;;5008202;28;20523;-77
2022/10/22 09:30:37;;;;;;;14.90;2.88;;;;;;;;;;5004680;28;20022;-77
2022/10/22 09:33:06;;;;;;;9.23;2.30;;;;;;;;;;5007151;28;20026;-77
2022/10/22 09:35:44;;;;;;;17.08;2.88;;;;;;;;;;5000155;28;20656;-77
2022/10/22 09:38:12;;;;;;;14.05;2.72;;;;;;;;;;4997431;28;20022;-75
2022/10/22 09:40:42;;;;;;;14.68;2.95;;;;;;;;;;5005962;28;20100;-76
2022/10/22 09:43:11;;;;;;;8.85;2.50;;;;;;;;;;5012224;28;20036;-76
2022/10/22 09:45:37;;;;;;;21.83;2.90;;;;;;;;;;4997022;28;20046;-75
2022/10/22 09:48:11;;;;;;;14.48;2.60;;;;;;;;;;5014535;28;20041;-74
2022/10/22 09:50:44;;;;;;;10.60;2.47;;;;;;;;;;5014803;28;20472;-76
2022/10/22 09:53:21;;;;;;;19.00;2.88;;;;;;;;;;5009674;28;20331;-76
2022/10/22 09:55:52;;;;;;;12.90;2.78;;;;;;;;;;5013086;28;20321;-77
2022/10/22 09:58:18;;;;;;;12.00;3.28;;;;;;;;;;4986309;28;20057;-76
2022/10/22 10:00:46;;;;;;;10.75;2.60;;;;;;;;;;5007643;28;20033;-76
2022/10/22 10:03:18;;;;;;;11.77;2.67;;;;;;;;;;5014158;28;20018;-77
2022/10/22 10:05:47;;;;;;;13.75;2.20;;;;;;;;;;4997212;28;20049;-77
2022/10/22 10:08:14;;;;;;;7.85;2.35;;;;;;;;;;5014949;28;20024;-77
2022/10/22 10:10:46;;;;;;;9.00;2.13;;;;;;;;;;5014571;28;20017;-76
2022/10/22 10:13:31;;;;;;;11.55;2.38;;;;;;;;;;5011131;28;20029;-76
2022/10/22 10:16:00;;;;;;;19.05;4.18;;;;;;;;;;4989527;28;20441;-77
2022/10/22 10:18:52;;;;;;;8.05;2.08;;;;;;;;;;5007834;28;20025;-77
2022/10/22 10:21:31;;;;;;;14.77;2.72;;;;;;;;;;4980569;28;20034;-76
2022/10/22 10:24:15;;;;;;;17.17;2.95;;;;;;;;;;4990406;28;20443;-76
2022/10/22 10:26:47;;;;;;;13.02;2.90;;;;;;;;;;5010108;28;20084;-77
2022/10/22 10:29:20;;;;;;;7.18;2.15;;;;;;;;;;5003086;28;20088;-76
2022/10/22 10:31:52;;;;;;;10.77;2.30;;;;;;;;;;5004348;28;20010;-76
2022/10/22 10:34:26;;;;;;;13.77;2.50;;;;;;;;;;5006076;28;20446;-77
2022/10/22 10:36:58;;;;;;;15.70;3.03;;;;;;;;;;5011639;28;20092;-76
2022/10/22 10:39:28;;;;;;;12.77;2.95;;;;;;;;;;5003266;28;20091;-77
2022/10/22 10:41:58;;;;;;;13.07;3.10;;;;;;;;;;4996065;28;20030;-78
2022/10/22 10:44:24;;;;;;;9.07;2.45;;;;;;;;;;5013825;28;20053;-76
2022/10/22 10:46:57;;;;;;;9.90;2.40;;;;;;;;;;5007122;28;20026;-76
2022/10/22 10:49:25;;;;;;;15.50;2.17;;;;;;;;;;4993633;28;20034;-76
2022/10/22 10:51:56;;;;;;;9.50;1.92;;;;;;;;;;4995301;28;20449;-77
2022/10/22 10:54:22;;;;;;;17.17;2.55;;;;;;;;;;4994168;28;20033;-76
2022/10/22 10:56:51;;;;;;;13.73;2.28;;;;;;;;;;5013473;28;20034;-76
2022/10/22 10:59:21;;;;;;;15.68;2.38;;;;;;;;;;5009272;28;20456;-77
2022/10/22 11:01:53;;;;;;;11.65;2.20;;;;;;;;;;5013116;28;20034;-77
2022/10/22 11:04:19;;;;;;;;;;;;;;;;;;5013809;28;20042;-77
2022/10/22 11:06:46;;;;;;;12.82;2.63;;;;;;;;;;5013429;28;20052;-77
2022/10/22 11:09:20;;;;;;;9.65;2.15;;;;;;;;;;5013379;28;20037;-77
2022/10/22 11:11:48;;;;;;;12.52;2.20;;;;;;;;;;4994615;28;20023;-77
2022/10/22 11:14:21;;;;;;;14.65;2.28;;;;;;;;;;4993555;28;20089;-77
2022/10/22 11:17:04;;;;;;;10.65;1.90;;;;;;;;;;4993751;28;20034;-77
2022/10/22 11:19:37;;;;;;;11.98;2.30;;;;;;;;;;4993285;28;20133;-77
2022/10/22 11:22:09;;;;;;;9.45;2.03;;;;;;;;;;4993534;28;20079;-77
2022/10/22 11:24:46;;;;;;;14.98;2.25;;;;;;;;;;4975529;28;20418;-78
2022/10/22 11:27:21;;;;;;;9.13;1.90;;;;;;;;;;4993425;28;20018;-76
2022/10/22 11:29:49;;;;;;;14.20;1.75;;;;;;;;;;4993521;28;20135;-77
2022/10/22 11:32:18;;;;;;;10.65;2.00;;;;;;;;;;4993337;28;20034;-76
2022/10/22 11:34:53;;;;;;;18.73;1.92;;;;;;;;;;4975837;28;20026;-76
2022/10/22 11:37:20;;;;;;;10.05;1.60;;;;;;;;;;4993558;28;20022;-76
2022/10/22 11:39:54;;;;;;;15.55;2.63;;;;;;;;;;4975799;28;20034;-76
2022/10/22 11:42:22;;;;;;;19.58;2.28;;;;;;;;;;4986306;28;20126;-77
2022/10/22 11:45:01;;;;;;;13.70;2.33;;;;;;;;;;4993057;28;20046;-77
2022/10/22 11:47:48;;;;;;;14.88;1.88;;;;;;;;;;5000619;28;20131;-77
2022/10/22 11:50:21;;;;;;;13.63;2.47;;;;;;;;;;4973000;28;20072;-77
2022/10/22 11:52:54;;;;;;;12.80;1.90;;;;;;;;;;5009742;28;20116;-76
2022/10/22 11:55:34;;;;;;;10.80;1.88;;;;;;;;;;4995140;28;20045;-77
2022/10/22 11:58:01;;;;;;;8.95;1.42;;;;;;;;;;4996114;28;20393;-76
2022/10/22 12:00:34;;;;;;;7.78;1.60;;;;;;;;;;4992773;28;20027;-77
2022/10/22 12:03:38;;;;;;;15.02;1.98;;;;;;;;;;4998143;28;20164;-76
2022/10/22 12:06:04;;;;;;;10.50;1.90;;;;;;;;;;4941488;28;20028;-77
2022/10/22 12:08:31;;;;;;;14.52;2.08;;;;;;;;;;4993786;28;20038;-77
2022/10/22 12:10:59;;;;;;;13.27;1.70;;;;;;;;;;5006798;28;20404;-77
2022/10/22 12:13:52;;;;;;;7.90;1.50;;;;;;;;;;5004514;28;20462;-77
2022/10/22 12:16:19;;;;;;;17.70;2.50;;;;;;;;;;4981714;28;20053;-76
2022/10/22 12:18:45;;;;;;;18.48;2.10;;;;;;;;;;5002033;28;20076;-77
2022/10/22 12:21:12;;;;;;;14.00;1.80;;;;;;;;;;5003139;28;20025;-77
2022/10/22 12:23:39;;;;;;;13.27;1.83;;;;;;;;;;5003435;28;20508;-77
2022/10/22 12:26:05;;;;;;;9.07;1.63;;;;;;;;;;5000686;28;20019;-77
2022/10/22 12:34:04;;;;;;;10.50;2.28;;;;;;;;;;5016427;28;20029;-78
2022/10/22 12:36:32;;;;;;;16.45;2.13;;;;;;;;;;5000851;28;20088;-79
2022/10/22 12:39:09;;;;;;;12.13;1.95;;;;;;;;;;5007973;28;20157;-77
2022/10/22 12:41:37;;;;;;;11.65;1.50;;;;;;;;;;5009118;28;20472;-78
2022/10/22 12:44:04;;;;;;;12.73;2.30;;;;;;;;;;5009644;28;20018;-78
2022/10/22 12:46:31;;;;;;;18.27;2.40;;;;;;;;;;4990916;28;20053;-81
2022/10/22 12:48:59;;;;;;;17.17;2.53;;;;;;;;;;5010029;28;20092;-77
2022/10/22 12:51:25;;;;;;;16.45;1.95;;;;;;;;;;5010417;28;20364;-78
2022/10/22 12:53:53;;;;;;;13.30;1.73;;;;;;;;;;4998983;28;20038;-77
2022/10/22 12:56:27;;;;;;;19.30;2.13;;;;;;;;;;4983759;28;20499;-77
2022/10/22 12:58:53;;;;;;;14.18;2.10;;;;;;;;;;5000865;28;20034;-76
2022/10/22 13:01:19;;;;;;;17.83;2.28;;;;;;;;;;5003205;28;20029;-77
2022/10/22 13:03:49;;;;;;;13.25;1.88;;;;;;;;;;5003201;28;20031;-76
2022/10/22 13:06:18;;;;;;;9.15;1.83;;;;;;;;;;5005903;28;20030;-79
2022/10/22 13:08:59;;;;;;;13.00;2.15;;;;;;;;;;5012573;28;20021;-79
2022/10/22 13:11:39;;;;;;;15.95;1.98;;;;;;;;;;4999845;28;20041;-79
2022/10/22 13:14:15;;;;;;;16.88;2.13;;;;;;;;;;4991438;28;20049;-79
2022/10/22 13:16:41;;;;;;;25.77;2.92;;;;;;;;;;4992416;28;20030;-79
2022/10/22 13:19:27;;;;;;;24.90;3.10;;;;;;;;;;5005674;28;20032;-79
2022/10/22 13:21:53;;;;;;;17.15;2.53;;;;;;;;;;4998283;28;20088;-79
2022/10/22 13:24:21;;;;;;;16.05;2.60;;;;;;;;;;5016226;28;20042;-79
2022/10/22 13:26:52;;;;;;;15.27;2.65;;;;;;;;;;5016025;28;20094;-80
2022/10/22 13:29:19;;;;;;;10.27;2.45;;;;;;;;;;5015827;28;20026;-78
2022/10/22 13:31:50;;;;;;;16.58;2.17;;;;;;;;;;5014486;28;20029;-77
2022/10/22 13:34:19;;;;;;;14.43;2.83;;;;;;;;;;5012074;28;20081;-76
2022/10/22 13:36:45;;;;;;;16.48;2.35;;;;;;;;;;5014402;28;20189;-76
2022/10/22 13:39:22;;;;;;;11.63;2.10;;;;;;;;;;4996974;28;20034;-76
2022/10/22 13:41:51;;;;;;;16.08;2.72;;;;;;;;;;4996484;28;20163;-76
2022/10/22 13:44:18;;;;;;;14.20;2.50;;;;;;;;;;5014256;28;20481;-76
2022/10/22 13:46:48;;;;;;;12.15;2.25;;;;;;;;;;5010784;28;20030;-76
2022/10/22 13:49:17;;;;;;;10.30;2.72;;;;;;;;;;5012943;28;20028;-76
2022/10/22 13:51:44;;;;;;;17.85;2.65;;;;;;;;;;5009921;28;20044;-77
2022/10/22 13:54:13;;;;;;;17.35;2.72;;;;;;;;;;4995586;28;20034;-78
2022/10/22 13:56:39;;;;;;;13.18;2.03;;;;;;;;;;5013737;28;20026;-79
2022/10/22 13:59:05;;;;;;;13.52;2.75;;;;;;;;;;5002904;28;20033;-78
2022/10/22 14:01:31;;;;;;;17.50;2.47;;;;;;;;;;5012283;28;20038;-78
2022/10/22 14:03:59;;;;;;;13.18;2.22;;;;;;;;;;5012293;28;20085;-77
2022/10/22 14:06:30;;;;;;;14.63;2.47;;;;;;;;;;5013502;28;20049;-77
2022/10/22 14:09:07;;;;;;;14.85;2.70;;;;;;;;;;5011450;28;20032;-78
2022/10/22 14:11:34;;;;;;;18.02;2.78;;;;;;;;;;5011940;28;20088;-78
2022/10/22 14:14:02;;;;;;;13.15;2.42;;;;;;;;;;5012438;28;20038;-78
2022/10/22 14:16:31;;;;;;;10.52;2.33;;;;;;;;;;5012549;28;20022;-78
2022/10/22 14:18:57;;;;;;;15.05;2.60;;;;;;;;;;5014356;28;20028;-78
2022/10/22 14:21:24;;;;;;;14.60;2.50;;;;;;;;;;4996447;28;20473;-78
2022/10/22 14:23:51;;;;;;;16.10;2.45;;;;;;;;;;5013559;28;20040;-77
2022/10/22 14:26:23;;;;;;;9.85;1.80;;;;;;;;;;5014441;28;20423;-78
2022/10/22 14:28:49;;;;;;;13.88;2.85;;;;;;;;;;5013997;28;20109;-78
2022/10/22 14:31:16;;;;;;;15.43;2.65;;;;;;;;;;5013313;28;20026;-78
2022/10/22 14:33:42;;;;;;;12.38;2.42;;;;;;;;;;4996512;28;20036;-78
2022/10/22 14:36:11;;;;;;;15.63;2.97;;;;;;;;;;5014383;28;20026;-79
2022/10/22 14:38:37;;;;;;;17.27;2.95;;;;;;;;;;5002685;28;20402;-79
2022/10/22 14:41:03;;;;;;;17.25;2.40;;;;;;;;;;4997155;28;20025;-79
2022/10/22 14:43:30;;;;;;;11.95;2.20;;;;;;;;;;4996957;28;20033;-79
2022/10/22 14:45:56;;;;;;;17.05;2.55;;;;;;;;;;5014811;28;20387;-79